Time;durP1;ratioP1;P1;durP2;ratioP2;P2;SDS_P1;SDS_P2;PMS_P1;PMS_P2;Temp;Humidity;BMP_temperature;BMP_pressure;BME280_temperature;BME280_humidity;BME280_pressure;Samples;Min_cycle;Max_cycle;Signal;HPM_P1;HPM_P2
2023/04/13 00:00:50;;;;;;;3.10;1.98;;;;;;;1.68;56.45;94014.34;5018651;28;20490;-74
2023/04/13 00:03:16;;;;;;;0.98;0.95;;;;;;;1.71;56.41;94007.94;5031277;28;20136;-74
2023/04/13 00:05:44;;;;;;;3.70;2.30;;;;;;;1.66;56.00;93997.13;5018308;28;20497;-74
2023/04/13 00:08:10;;;;;;;2.42;1.55;;;;;;;1.48;56.07;93988.38;5030236;28;20365;-74
2023/04/13 00:10:36;;;;;;;4.90;2.55;;;;;;;1.60;57.57;93988.91;5023425;28;20250;-74
2023/04/13 00:13:05;;;;;;;2.47;1.00;;;;;;;1.31;55.15;93979.66;5021986;28;20079;-74
2023/04/13 00:15:30;;;;;;;3.90;2.17;;;;;;;0.73;58.91;93998.59;5009346;28;20112;-74
2023/04/13 00:17:57;;;;;;;1.40;0.98;;;;;;;0.70;59.31;93990.25;5020959;28;20562;-74
2023/04/13 00:20:22;;;;;;;4.63;3.10;;;;;;;1.56;56.27;93979.72;5022123;28;20025;-74
2023/04/13 00:22:47;;;;;;;5.93;1.48;;;;;;;1.06;55.50;93978.78;5022651;28;20119;-74
2023/04/13 00:25:13;;;;;;;2.00;1.55;;;;;;;1.85;56.63;93973.19;5023060;28;20044;-74
2023/04/13 00:27:39;;;;;;;2.97;1.65;;;;;;;1.32;56.29;93969.97;5009493;28;20041;-74
2023/04/13 00:30:11;;;;;;;5.43;3.28;;;;;;;1.47;57.60;93963.13;5020297;28;20399;-74
2023/04/13 00:32:38;;;;;;;1.83;1.38;;;;;;;0.63;59.20;93966.50;5019532;28;20029;-74
2023/04/13 00:35:04;;;;;;;2.45;1.90;;;;;;;1.69;56.23;93962.69;5019786;28;20072;-74
2023/04/13 00:37:31;;;;;;;2.65;1.23;;;;;;;1.88;55.15;93959.72;5026495;28;20079;-74
2023/04/13 00:39:57;;;;;;;4.65;1.27;;;;;;;1.29;54.55;93962.44;5038931;28;20067;-74
2023/04/13 00:42:22;;;;;;;6.22;1.13;;;;;;;0.83;55.75;93963.63;5021730;28;20529;-74
2023/04/13 00:44:47;;;;;;;9.77;5.95;;;;;;;1.69;56.98;93967.94;5032909;28;20056;-74
2023/04/13 00:47:16;;;;;;;4.30;1.23;;;;;;;1.70;55.56;93959.91;5030040;28;20053;-74
2023/04/13 00:49:42;;;;;;;6.68;3.75;;;;;;;2.27;54.15;93962.66;5016167;28;20035;-74
2023/04/13 00:52:10;;;;;;;3.45;2.00;;;;;;;2.53;54.40;93957.16;5013468;28;20092;-74
2023/04/13 00:54:36;;;;;;;4.45;1.00;;;;;;;0.72;54.67;93960.28;5021011;28;20607;-74
2023/04/13 00:57:01;;;;;;;6.38;2.42;;;;;;;0.65;57.92;93958.47;5007755;28;20031;-74
2023/04/13 00:59:27;;;;;;;1.70;1.05;;;;;;;1.08;54.57;93961.91;5024808;28;20067;-74
2023/04/13 01:01:56;;;;;;;1.67;1.05;;;;;;;1.56;56.16;93966.59;5025462;28;20332;-74
2023/04/13 01:04:22;;;;;;;4.20;1.90;;;;;;;2.09;54.21;93950.53;5047570;23;20087;-83
2023/04/13 01:07:01;;;;;;;2.42;2.03;;;;;;;2.33;51.49;93940.97;5022544;28;20059;-82
2023/04/13 01:09:33;;;;;;;5.63;1.63;;;;;;;2.49;51.14;93955.06;5030802;28;20087;-83
2023/04/13 01:12:13;;;;;;;5.07;1.73;;;;;;;2.46;53.77;93943.09;5024522;28;20509;-83
2023/04/13 01:14:47;;;;;;;3.17;1.08;;;;;;;1.60;53.65;93954.00;5023126;28;20092;-82
2023/04/13 01:17:20;;;;;;;3.53;1.15;;;;;;;1.65;53.48;93956.94;5032004;28;20148;-82
2023/04/13 01:19:55;;;;;;;4.25;1.40;;;;;;;2.18;52.61;93953.16;5016049;28;20071;-82
2023/04/13 01:22:22;;;;;;;9.68;5.03;;;;;;;1.19;56.18;93952.09;5031448;28;20250;-82
2023/04/13 01:25:21;;;;;;;9.25;4.93;;;;;;;2.14;54.59;93957.91;5013507;28;20043;-82
2023/04/13 01:27:54;;;;;;;10.70;6.65;;;;;;;2.61;52.80;93940.56;5036353;28;20484;-82
2023/04/13 01:30:22;;;;;;;3.65;1.15;;;;;;;2.75;49.03;93960.06;5036951;28;20075;-82
2023/04/13 01:32:51;;;;;;;8.85;3.83;;;;;;;2.83;51.28;93938.19;5037080;28;20380;-82
2023/04/13 01:35:21;;;;;;;2.90;1.45;;;;;;;2.97;50.67;93933.19;5038537;28;20357;-83
2023/04/13 01:37:47;;;;;;;6.47;3.33;;;;;;;2.51;52.31;93947.81;5024851;28;20211;-83
2023/04/13 01:40:12;;;;;;;2.53;1.30;;;;;;;3.20;50.63;93942.94;5023997;28;20055;-83
2023/04/13 01:42:39;;;;;;;16.75;9.80;;;;;;;2.58;54.78;93926.97;5038079;28;20071;-83
2023/04/13 01:45:11;;;;;;;6.47;2.40;;;;;;;2.82;52.01;93927.84;5029814;28;20077;-83
2023/04/13 01:47:43;;;;;;;16.92;11.15;;;;;;;3.25;52.29;93925.66;5038077;28;20075;-83
2023/04/13 01:50:17;;;;;;;5.78;2.80;;;;;;;2.95;49.84;93933.38;5033956;28;20401;-83
2023/04/13 01:52:42;;;;;;;12.07;7.25;;;;;;;3.27;51.80;93926.28;5030491;28;20411;-83
2023/04/13 01:55:08;;;;;;;10.63;6.20;;;;;;;3.35;53.35;93928.06;5033158;28;20043;-83
2023/04/13 01:57:34;;;;;;;9.38;5.78;;;;;;;3.65;52.94;93943.19;5031268;28;20701;-83
2023/04/13 02:00:10;;;;;;;4.38;2.25;;;;;;;3.73;49.25;93940.47;5032429;28;20087;-83
2023/04/13 02:02:36;;;;;;;5.43;2.67;;;;;;;3.74;50.95;93936.06;5024258;28;20064;-83
2023/04/13 02:05:02;;;;;;;3.83;1.98;;;;;;;4.09;50.22;93936.41;5027486;28;20105;-84
2023/04/13 02:07:27;;;;;;;11.63;7.57;;;;;;;4.03;51.38;93939.75;5015150;28;20405;-83
2023/04/13 02:09:53;;;;;;;7.93;4.82;;;;;;;3.64;51.67;93942.34;5014374;28;20316;-84
2023/04/13 02:12:19;;;;;;;8.95;5.68;;;;;;;3.58;51.44;93943.06;5013559;28;20029;-84
2023/04/13 02:14:45;;;;;;;9.93;7.20;;;;;;;3.87;52.40;93951.22;5007106;28;20365;-83
2023/04/13 02:17:10;;;;;;;12.63;8.48;;;;;;;3.88;52.21;93951.06;5015468;28;20051;-83
2023/04/13 02:19:35;;;;;;;12.13;7.68;;;;;;;3.80;52.56;93951.13;5010792;28;20043;-84
2023/04/13 02:22:01;;;;;;;3.78;1.48;;;;;;;4.07;48.87;93951.56;5017451;28;20034;-83
2023/04/13 02:24:26;;;;;;;3.47;1.70;;;;;;;3.80;49.48;93953.75;5011791;28;20280;-83
2023/04/13 02:26:52;;;;;;;6.10;3.05;;;;;;;3.61;50.55;93958.50;5012552;28;20041;-83
2023/04/13 02:29:17;;;;;;;7.07;4.43;;;;;;;3.76;49.98;93955.09;5013933;28;20028;-83
2023/04/13 02:31:43;;;;;;;3.60;1.45;;;;;;;2.68;49.82;93950.41;5016421;28;20075;-83
2023/04/13 02:34:10;;;;;;;3.33;1.63;;;;;;;3.34;49.95;93947.47;5026685;28;20479;-83
2023/04/13 02:36:35;;;;;;;8.57;1.20;;;;;;;2.92;50.53;93946.84;5012062;28;20435;-83
2023/04/13 02:39:01;;;;;;;5.22;3.30;;;;;;;2.81;51.70;93942.78;5012600;28;20083;-83
2023/04/13 02:41:26;;;;;;;5.80;1.83;;;;;;;3.36;50.59;93942.00;5011816;28;20072;-83
2023/04/13 02:43:52;;;;;;;4.57;1.10;;;;;;;1.31;53.29;93948.19;5012718;28;20041;-83
2023/04/13 02:46:17;;;;;;;5.47;1.67;;;;;;;2.45;51.33;93943.25;5015113;28;20034;-83
2023/04/13 02:48:43;;;;;;;3.08;1.33;;;;;;;3.07;50.06;93941.69;5014891;28;20072;-83
2023/04/13 02:51:08;;;;;;;1.88;1.13;;;;;;;1.23;53.78;93953.44;5012087;28;20040;-82
2023/04/13 02:53:34;;;;;;;6.88;3.70;;;;;;;2.66;52.38;93934.81;5010959;28;20172;-83
2023/04/13 02:55:59;;;;;;;5.75;2.40;;;;;;;2.92;50.55;93933.69;5016246;28;20040;-83
2023/04/13 02:58:25;;;;;;;3.20;1.40;;;;;;;2.16;50.90;93949.88;4998143;28;20071;-83
2023/04/13 03:00:51;;;;;;;3.13;1.48;;;;;;;2.43;51.02;93950.47;5013211;28;20022;-83
2023/04/13 03:03:16;;;;;;;5.70;1.05;;;;;;;2.36;51.05;93952.94;5014994;28;20397;-83
2023/04/13 03:05:42;;;;;;;2.92;1.30;;;;;;;1.34;52.01;93952.28;5013131;28;20438;-82
2023/04/13 03:08:09;;;;;;;6.03;3.78;;;;;;;2.55;51.98;93948.31;5008078;28;20030;-83
2023/04/13 03:10:36;;;;;;;3.60;1.83;;;;;;;2.28;51.54;93935.38;5008011;28;20603;-83
2023/04/13 03:13:02;;;;;;;4.78;1.30;;;;;;;2.36;49.82;93951.16;5031127;28;20072;-83
2023/04/13 03:15:28;;;;;;;4.20;1.52;;;;;;;2.29;51.22;93951.97;5011285;28;20033;-83
2023/04/13 03:17:53;;;;;;;3.15;1.30;;;;;;;1.82;51.79;93954.31;5007665;28;20079;-82
2023/04/13 03:20:20;;;;;;;2.97;1.33;;;;;;;0.77;55.89;93951.13;5008374;28;20587;-83
2023/04/13 03:22:45;;;;;;;4.15;1.75;;;;;;;1.81;54.17;93943.00;4993371;28;20374;-83
2023/04/13 03:25:11;;;;;;;3.58;1.35;;;;;;;0.79;54.28;93943.97;5011275;28;20048;-82
2023/04/13 03:27:36;;;;;;;5.88;1.60;;;;;;;0.54;55.89;93947.28;5015140;28;20444;-83
2023/04/13 03:30:02;;;;;;;5.60;1.40;;;;;;;0.92;55.64;93952.19;5016345;28;20069;-83
2023/04/13 03:32:28;;;;;;;5.28;1.67;;;;;;;1.26;55.19;93937.34;4994887;28;20360;-83
2023/04/13 03:34:54;;;;;;;4.05;1.08;;;;;;;1.43;54.24;93929.53;5016164;28;20278;-82
2023/04/13 03:37:19;;;;;;;3.75;1.30;;;;;;;1.61;54.40;93939.91;5006795;28;20069;-83
2023/04/13 03:39:45;;;;;;;3.03;1.42;;;;;;;0.44;57.63;93938.72;5003952;28;20111;-82
2023/04/13 03:42:10;;;;;;;2.72;1.00;;;;;;;1.28;54.55;93940.66;4985183;28;20391;-83
2023/04/13 03:44:36;;;;;;;2.95;1.00;;;;;;;1.42;54.72;93941.81;5009802;28;20029;-82
2023/04/13 03:47:02;;;;;;;4.95;1.58;;;;;;;1.03;55.87;93951.09;5009620;28;20072;-83
2023/04/13 03:49:29;;;;;;;4.13;1.33;;;;;;;1.69;53.87;93941.69;5015401;28;20094;-82
2023/04/13 03:51:55;;;;;;;4.95;1.08;;;;;;;1.11;54.78;93951.09;4984260;28;20075;-82
2023/04/13 03:54:20;;;;;;;5.38;1.52;;;;;;;0.76;56.76;93937.25;5015487;28;20060;-82
2023/04/13 03:56:45;;;;;;;3.08;1.52;;;;;;;1.39;54.64;93938.69;5012602;28;20052;-82
2023/04/13 03:59:11;;;;;;;5.63;1.70;;;;;;;1.87;53.74;93942.34;5013630;28;20138;-82
2023/04/13 04:01:36;;;;;;;6.10;1.48;;;;;;;0.98;56.11;93953.34;5013897;28;20276;-82
2023/04/13 04:04:02;;;;;;;4.45;2.15;;;;;;;1.92;53.21;93935.78;5014879;28;20180;-82
2023/04/13 04:06:27;;;;;;;5.97;1.52;;;;;;;0.77;54.90;93965.06;5026420;28;20061;-82
2023/04/13 04:08:53;;;;;;;4.65;1.48;;;;;;;-0.22;59.95;93954.84;5027057;28;20348;-82
2023/04/13 04:11:18;;;;;;;6.88;1.73;;;;;;;1.45;54.74;93938.03;4998409;28;20041;-82
2023/04/13 04:13:44;;;;;;;5.93;1.58;;;;;;;1.68;53.90;93935.63;5019193;28;20049;-81
2023/04/13 04:16:10;;;;;;;4.47;1.85;;;;;;;1.48;54.74;93948.22;5016401;28;20472;-82
2023/04/13 04:18:36;;;;;;;6.93;1.63;;;;;;;1.71;54.39;93926.63;5017937;28;20068;-82
2023/04/13 04:21:01;;;;;;;6.45;1.80;;;;;;;0.45;56.86;93935.94;5018594;28;20461;-82
2023/04/13 04:23:27;;;;;;;6.35;1.67;;;;;;;-0.06;59.64;93941.88;4996335;28;20087;-82
2023/04/13 04:25:53;;;;;;;6.28;1.75;;;;;;;1.82;53.70;93942.03;5013544;28;20051;-82
2023/04/13 04:28:19;;;;;;;3.22;0.93;;;;;;;2.03;53.11;93940.69;5000233;28;20033;-82
2023/04/13 04:30:53;;;;;;;8.30;2.92;;;;;;;1.61;54.03;93930.19;5020823;28;20038;-82
2023/04/13 04:33:21;;;;;;;7.50;1.65;;;;;;;1.39;55.04;93938.69;5013334;28;20544;-82
2023/04/13 04:35:50;;;;;;;4.15;1.42;;;;;;;1.52;55.13;93946.91;5016137;28;20077;-82
2023/04/13 04:38:16;;;;;;;3.95;2.15;;;;;;;1.80;54.17;93945.81;4996520;28;20042;-82
2023/04/13 04:40:45;;;;;;;6.78;1.60;;;;;;;1.48;55.42;93943.78;5013837;28;20087;-82
2023/04/13 04:43:13;;;;;;;4.68;1.67;;;;;;;1.24;57.12;93936.69;5001342;28;20076;-82
2023/04/13 04:45:42;;;;;;;5.50;1.60;;;;;;;0.81;55.57;93936.75;4994693;28;20041;-82
2023/04/13 04:48:13;;;;;;;3.50;1.33;;;;;;;1.19;56.13;93936.38;5014359;28;20041;-82
2023/04/13 04:50:43;;;;;;;4.63;1.55;;;;;;;1.60;54.65;93933.00;5001231;28;20307;-82
2023/04/13 04:53:09;;;;;;;9.45;1.70;;;;;;;2.23;53.65;93929.84;5020564;28;20048;-82
2023/04/13 04:55:35;;;;;;;6.10;1.60;;;;;;;2.26;53.13;93937.38;5020061;28;20095;-82
2023/04/13 04:58:00;;;;;;;4.65;1.58;;;;;;;1.62;55.09;93928.41;5017816;28;20077;-81
2023/04/13 05:00:29;;;;;;;5.22;1.65;;;;;;;1.35;56.50;93933.78;5014694;28;20038;-82
2023/04/13 05:02:54;;;;;;;4.35;1.77;;;;;;;1.84;54.64;93941.88;5015210;28;20037;-81
2023/04/13 05:05:20;;;;;;;9.38;2.30;;;;;;;1.81;56.00;93927.25;5015187;28;20448;-82
2023/04/13 05:07:45;;;;;;;6.93;1.65;;;;;;;2.33;53.84;93938.34;4996104;28;20578;-82
2023/04/13 05:10:10;;;;;;;4.40;1.60;;;;;;;0.59;58.65;93947.63;5014978;28;20077;-81
2023/04/13 05:12:36;;;;;;;5.68;1.50;;;;;;;1.78;55.22;93953.00;5013043;28;20051;-65
2023/04/13 05:15:02;;;;;;;7.45;2.30;;;;;;;0.62;57.92;93946.53;5015786;28;20070;-65
2023/04/13 05:17:27;;;;;;;7.68;1.88;;;;;;;1.43;56.02;93958.38;5016668;28;20065;-66
2023/04/13 05:19:53;;;;;;;4.13;1.60;;;;;;;1.87;54.32;93958.09;5014033;28;20431;-65
2023/04/13 05:22:19;;;;;;;8.48;1.85;;;;;;;1.57;55.08;93967.44;5017673;28;20073;-65
2023/04/13 05:24:45;;;;;;;4.90;1.60;;;;;;;1.43;56.26;93955.75;5018593;28;20521;-65
2023/04/13 05:27:12;;;;;;;6.90;1.90;;;;;;;1.95;53.96;93974.81;5015016;28;20074;-65
2023/04/13 05:29:37;;;;;;;5.30;2.25;;;;;;;2.44;54.30;93967.88;5033590;28;20083;-65
2023/04/13 05:32:03;;;;;;;7.95;1.60;;;;;;;2.53;54.32;93982.63;5015711;28;20048;-65
2023/04/13 05:34:32;;;;;;;7.30;2.20;;;;;;;0.76;59.43;93981.78;5020011;28;20571;-65
2023/04/13 05:36:58;;;;;;;8.20;2.70;;;;;;;1.21;58.51;93995.53;5016439;28;20039;-65
2023/04/13 05:39:26;;;;;;;7.18;2.15;;;;;;;-0.21;63.06;94006.16;5013989;28;20173;-65
2023/04/13 05:41:51;;;;;;;9.75;2.40;;;;;;;-0.06;61.41;94014.31;5013956;28;20143;-65
2023/04/13 05:44:17;;;;;;;8.10;1.73;;;;;;;0.91;59.70;94004.75;5014981;28;20110;-65
2023/04/13 05:46:42;;;;;;;9.85;2.00;;;;;;;1.80;56.95;94003.53;5016551;28;20268;-65
2023/04/13 05:49:08;;;;;;;5.40;1.55;;;;;;;1.80;57.68;94003.53;5012613;28;20045;-65
2023/04/13 05:51:33;;;;;;;9.85;2.30;;;;;;;0.23;60.66;94018.47;5014942;28;20491;-65
2023/04/13 05:53:59;;;;;;;8.88;1.90;;;;;;;-0.76;66.27;94019.22;5012742;28;20067;-65
2023/04/13 05:56:24;;;;;;;4.07;1.52;;;;;;;1.58;58.74;94011.03;5014170;28;20055;-65
2023/04/13 05:58:53;;;;;;;4.60;1.75;;;;;;;0.66;59.32;94017.75;5016931;28;20064;-65
2023/04/13 06:01:19;;;;;;;5.55;1.42;;;;;;;1.28;59.16;94021.94;5011831;28;20153;-65
2023/04/13 06:03:45;;;;;;;6.28;1.83;;;;;;;0.57;61.03;94041.28;5014957;28;20685;-65
2023/04/13 06:06:11;;;;;;;8.15;2.00;;;;;;;1.09;59.71;94023.03;5013117;28;20078;-65
2023/04/13 06:08:37;;;;;;;8.07;2.05;;;;;;;1.48;58.86;94026.91;5030751;28;20058;-65
2023/04/13 06:11:03;;;;;;;8.73;2.08;;;;;;;0.26;61.06;94064.44;5015107;28;20279;-65
2023/04/13 06:13:29;;;;;;;7.55;1.70;;;;;;;0.41;63.34;94046.41;5013031;28;20084;-65
2023/04/13 06:15:55;;;;;;;4.30;1.45;;;;;;;0.72;61.56;94040.72;5012392;28;20106;-65
2023/04/13 06:18:21;;;;;;;5.10;2.03;;;;;;;0.08;65.58;94045.16;5008515;28;20359;-65
2023/04/13 06:20:47;;;;;;;4.13;1.65;;;;;;;0.47;64.42;94045.78;5013364;28;20271;-65
2023/04/13 06:23:12;;;;;;;4.45;1.85;;;;;;;0.82;64.15;94057.13;5013828;28;20074;-65
2023/04/13 06:25:39;;;;;;;4.10;1.35;;;;;;;0.43;64.36;94065.38;5011980;28;20075;-65
2023/04/13 06:28:04;;;;;;;5.22;1.50;;;;;;;0.42;62.39;94059.34;5013084;28;20074;-65
2023/04/13 06:30:30;;;;;;;5.32;1.90;;;;;;;-0.50;65.41;94075.22;5015643;28;20505;-65
2023/04/13 06:32:55;;;;;;;6.63;1.60;;;;;;;-1.42;70.76;94084.53;5017315;28;20354;-65
2023/04/13 06:35:21;;;;;;;8.75;1.60;;;;;;;-0.75;69.16;94094.06;5010052;28;20462;-65
2023/04/13 06:37:46;;;;;;;6.90;2.03;;;;;;;-0.36;67.24;94089.59;5017650;28;20397;-65
2023/04/13 06:40:14;;;;;;;4.95;1.45;;;;;;;-0.92;69.21;94084.38;5007164;28;20101;-65
2023/04/13 06:42:40;;;;;;;4.95;1.63;;;;;;;-0.28;67.88;94079.19;5010634;28;20095;-65
2023/04/13 06:45:10;;;;;;;1.55;0.60;;;;;;;-0.05;67.34;94079.59;5006358;28;20234;-65
2023/04/13 06:47:36;;;;;;;2.20;1.02;;;;;;;0.04;66.97;94085.69;5004826;28;20443;-65
2023/04/13 06:50:05;;;;;;;11.43;6.05;;;;;;;0.50;64.99;94087.38;5010395;28;20077;-65
2023/04/13 06:52:33;;;;;;;4.35;1.30;;;;;;;0.45;63.98;94106.16;5016441;28;20061;-65
2023/04/13 06:54:59;;;;;;;3.00;1.02;;;;;;;0.95;62.96;94097.78;5007174;28;20520;-65
2023/04/13 06:57:25;;;;;;;6.20;2.30;;;;;;;0.35;65.22;94084.50;5015325;28;20127;-65
2023/04/13 06:59:50;;;;;;;4.97;1.25;;;;;;;0.30;64.25;94102.44;5015703;28;20108;-65
2023/04/13 07:02:16;;;;;;;4.22;1.38;;;;;;;0.45;63.97;94090.44;5009824;28;20115;-65
2023/04/13 07:04:41;;;;;;;2.70;1.20;;;;;;;0.08;66.18;94105.38;5011316;28;20076;-65
2023/04/13 07:07:06;;;;;;;1.83;0.95;;;;;;;0.12;65.10;94105.91;5011726;28;20581;-65
2023/04/13 07:09:32;;;;;;;4.32;1.40;;;;;;;0.27;64.31;94128.94;5013259;28;20036;-65
2023/04/13 07:12:02;;;;;;;4.35;1.45;;;;;;;0.25;65.28;94112.56;5011916;28;20067;-65
2023/04/13 07:14:35;;;;;;;3.45;1.25;;;;;;;0.59;64.58;94117.88;5010570;28;20600;-65
2023/04/13 07:17:01;;;;;;;3.45;1.30;;;;;;;0.40;63.97;94118.91;5015150;28;20043;-67
2023/04/13 07:19:28;;;;;;;4.75;1.65;;;;;;;-0.13;65.29;94117.94;5009985;28;20071;-64
2023/04/13 07:21:53;;;;;;;4.10;1.30;;;;;;;0.41;63.87;94127.59;5015430;28;20488;-64
2023/04/13 07:24:19;;;;;;;4.07;1.17;;;;;;;0.54;64.18;94135.03;5015309;28;20048;-64
2023/04/13 07:26:44;;;;;;;4.32;1.42;;;;;;;0.71;63.27;94139.44;5011948;28;20069;-64
2023/04/13 07:29:12;;;;;;;4.35;1.40;;;;;;;0.39;63.85;94124.28;5009957;28;20043;-64
2023/04/13 07:31:38;;;;;;;4.95;1.30;;;;;;;0.71;63.63;94130.72;5011106;28;20150;-64
2023/04/13 07:34:04;;;;;;;4.50;1.30;;;;;;;-0.09;65.99;94141.06;5011504;28;20485;-64
2023/04/13 07:36:30;;;;;;;2.15;0.93;;;;;;;0.78;63.53;94126.53;5013262;28;20036;-64
2023/04/13 07:38:56;;;;;;;6.13;1.27;;;;;;;0.27;63.83;94142.84;5012395;28;20132;-64
2023/04/13 07:41:23;;;;;;;2.65;1.20;;;;;;;0.54;63.88;94141.09;5013762;28;20162;-65
2023/04/13 07:43:48;;;;;;;5.95;1.40;;;;;;;0.78;63.72;94147.50;5010866;28;20193;-65
2023/04/13 07:46:16;;;;;;;4.88;1.25;;;;;;;-0.24;65.83;94151.16;5008884;28;20384;-64
2023/04/13 07:48:42;;;;;;;5.18;1.17;;;;;;;0.92;63.72;94148.72;5025779;28;20127;-65
2023/04/13 07:51:17;;;;;;;3.72;1.38;;;;;;;0.88;63.58;94157.06;5010642;28;20462;-65
2023/04/13 07:53:42;;;;;;;3.83;1.33;;;;;;;1.39;62.02;94154.56;5012109;28;20593;-65
2023/04/13 07:56:08;;;;;;;3.78;1.48;;;;;;;0.72;64.70;94167.25;5015736;28;20054;-65
2023/04/13 07:58:33;;;;;;;3.65;1.20;;;;;;;1.00;63.31;94174.19;5016588;28;20422;-65
2023/04/13 08:01:01;;;;;;;2.65;1.05;;;;;;;1.65;62.01;94158.97;5011068;28;20122;-65
2023/04/13 08:03:33;;;;;;;3.17;1.30;;;;;;;1.83;61.86;94161.50;5012123;28;20127;-65
2023/04/13 08:05:59;;;;;;;3.38;1.30;;;;;;;2.34;59.28;94159.78;5017405;28;20052;-65
2023/04/13 08:08:25;;;;;;;1.08;0.98;;;;;;;2.16;59.08;94168.63;5016279;28;20052;-65
2023/04/13 08:10:54;;;;;;;3.25;1.40;;;;;;;1.02;62.92;94180.06;5015428;28;20135;-65
2023/04/13 08:13:20;;;;;;;3.47;1.55;;;;;;;1.48;62.44;94166.75;5010895;28;20040;-65
2023/04/13 08:15:46;;;;;;;0.80;0.77;;;;;;;1.90;61.20;94171.38;5012261;28;20056;-65
2023/04/13 08:18:11;;;;;;;3.72;1.13;;;;;;;2.07;59.64;94167.78;5007316;28;20045;-65
2023/04/13 08:20:37;;;;;;;4.72;1.45;;;;;;;1.43;62.53;94178.69;5013350;28;20061;-65
2023/04/13 08:23:02;;;;;;;2.83;1.23;;;;;;;2.39;59.74;94166.19;5009786;28;20411;-65
2023/04/13 08:25:28;;;;;;;3.08;1.52;;;;;;;1.60;60.62;94179.63;5011158;28;20045;-65
2023/04/13 08:27:56;;;;;;;5.70;1.83;;;;;;;1.67;62.09;94185.06;5012992;28;20123;-65
2023/04/13 08:30:22;;;;;;;6.45;1.50;;;;;;;1.50;62.65;94190.22;5011934;28;20068;-65
2023/04/13 08:32:47;;;;;;;1.70;0.88;;;;;;;1.04;64.37;94190.41;5008723;28;20091;-65
2023/04/13 08:35:13;;;;;;;2.47;1.40;;;;;;;1.34;61.79;94190.94;5011902;28;20164;-65
2023/04/13 08:37:38;;;;;;;5.97;1.30;;;;;;;1.72;62.67;94211.63;5007443;28;20125;-65
2023/04/13 08:40:06;;;;;;;3.92;1.55;;;;;;;1.42;63.14;94208.50;5009489;28;20049;-65
2023/04/13 08:42:33;;;;;;;3.00;1.33;;;;;;;2.29;61.05;94212.81;5015804;28;20423;-65
2023/04/13 08:44:58;;;;;;;1.45;1.02;;;;;;;2.06;61.09;94229.16;5010874;28;20500;-65
2023/04/13 08:47:27;;;;;;;4.80;2.50;;;;;;;2.45;58.41;94209.38;5013678;28;20065;-65
2023/04/13 08:49:59;;;;;;;3.33;1.13;;;;;;;1.35;61.50;94221.41;5013037;28;20114;-65
2023/04/13 08:52:25;;;;;;;5.25;2.33;;;;;;;1.75;61.61;94227.06;5011126;28;20480;-65
2023/04/13 08:54:52;;;;;;;2.08;0.90;;;;;;;1.86;62.70;94233.84;5011291;28;20076;-65
2023/04/13 08:57:17;;;;;;;1.80;1.10;;;;;;;1.19;63.42;94241.31;5010764;28;20068;-65
2023/04/13 08:59:43;;;;;;;3.40;1.20;;;;;;;1.71;62.12;94231.00;5008525;28;20066;-65
2023/04/13 09:02:09;;;;;;;5.13;1.85;;;;;;;1.81;61.95;94241.38;5032605;28;20559;-65
2023/04/13 09:04:37;;;;;;;4.15;1.17;;;;;;;1.44;61.58;94256.41;5011666;28;20080;-65
2023/04/13 09:07:03;;;;;;;1.63;0.98;;;;;;;2.34;59.51;94241.22;5012483;28;20072;-65
2023/04/13 09:09:29;;;;;;;2.08;1.17;;;;;;;1.73;61.01;94235.09;5014327;28;20058;-65
2023/04/13 09:11:55;;;;;;;4.28;1.38;;;;;;;2.69;58.19;94233.25;5032361;28;20075;-65
2023/04/13 09:14:21;;;;;;;3.72;1.38;;;;;;;2.16;58.79;94241.34;5014844;28;20284;-65
2023/04/13 09:16:47;;;;;;;4.00;1.25;;;;;;;2.46;57.42;94231.25;5013926;28;20068;-65
2023/04/13 09:19:12;;;;;;;1.95;0.82;;;;;;;2.76;57.61;94239.50;5017720;28;20041;-65
2023/04/13 09:21:42;;;;;;;8.82;1.17;;;;;;;2.29;59.45;94241.72;5010362;28;20048;-65
2023/04/13 09:24:08;;;;;;;2.20;1.00;;;;;;;3.30;57.22;94241.63;5011146;28;20198;-65
2023/04/13 09:26:49;;;;;;;8.38;1.48;;;;;;;3.19;57.51;94238.53;5013035;28;20575;-65
2023/04/13 09:29:16;;;;;;;1.65;1.23;;;;;;;3.28;54.13;94237.50;5010990;28;20140;-65
2023/04/13 09:31:42;;;;;;;2.60;0.90;;;;;;;2.79;57.30;94247.03;5013813;28;20103;-65
2023/04/13 09:34:08;;;;;;;3.63;1.00;;;;;;;2.68;57.63;94242.94;5011796;28;20349;-65
2023/04/13 09:36:33;;;;;;;2.38;1.02;;;;;;;3.07;55.88;94252.00;5014731;28;20512;-65
2023/04/13 09:38:59;;;;;;;3.80;1.20;;;;;;;2.75;55.36;94250.97;5019353;28;20037;-65
2023/04/13 09:41:31;;;;;;;1.95;1.30;;;;;;;2.24;58.79;94267.63;5018995;28;20421;-65
2023/04/13 09:43:58;;;;;;;4.57;0.90;;;;;;;3.16;57.27;94273.84;5019261;28;20048;-65
2023/04/13 09:46:24;;;;;;;2.90;1.40;;;;;;;3.58;54.71;94271.22;5018986;28;20106;-65
2023/04/13 09:49:02;;;;;;;1.00;0.60;;;;;;;3.24;55.58;94270.41;5016973;28;20030;-65
2023/04/13 09:51:40;;;;;;;2.57;0.90;;;;;;;2.23;55.50;94287.81;5010349;28;20602;-65
2023/04/13 09:54:05;;;;;;;3.28;0.80;;;;;;;2.00;56.30;94274.41;5014482;28;20580;-65
2023/04/13 09:56:47;;;;;;;1.33;0.68;;;;;;;1.96;58.68;94275.72;5014404;28;20058;-65
2023/04/13 09:59:12;;;;;;;1.60;0.85;;;;;;;2.83;55.90;94272.03;5010382;28;20516;-65
2023/04/13 10:01:41;;;;;;;1.23;0.90;;;;;;;2.62;58.38;94270.69;5012424;28;20057;-66
2023/04/13 10:04:07;;;;;;;1.40;0.77;;;;;;;3.51;57.28;94277.13;4996350;28;20037;-65
2023/04/13 10:06:39;;;;;;;1.23;1.10;;;;;;;3.22;54.78;94275.81;5016215;28;20069;-65
2023/04/13 10:09:05;;;;;;;3.30;1.25;;;;;;;3.76;52.30;94276.28;5015713;28;20057;-65
2023/04/13 10:11:35;;;;;;;2.72;0.82;;;;;;;3.81;53.10;94277.41;5015190;28;20063;-65
2023/04/13 10:14:01;;;;;;;3.75;1.15;;;;;;;3.98;49.46;94264.19;5015615;28;20191;-65
2023/04/13 10:16:49;;;;;;;3.95;1.63;;;;;;;5.35;47.38;94274.47;5015977;28;20040;-65
2023/04/13 10:19:17;;;;;;;3.08;1.38;;;;;;;5.19;47.93;94292.09;5001825;28;20053;-65
2023/04/13 10:21:43;;;;;;;1.17;0.68;;;;;;;4.38;48.07;94279.19;5013096;28;20036;-65
2023/04/13 10:24:11;;;;;;;1.02;0.47;;;;;;;4.05;49.56;94290.69;5016984;28;20134;-65
2023/04/13 10:26:36;;;;;;;3.33;1.30;;;;;;;4.94;48.29;94284.28;5034545;28;20068;-65
2023/04/13 10:29:02;;;;;;;2.72;1.25;;;;;;;4.81;47.08;94290.19;5012489;28;20052;-65
2023/04/13 10:31:38;;;;;;;1.38;1.20;;;;;;;4.01;48.92;94302.56;5015793;28;20072;-65
2023/04/13 10:34:07;;;;;;;1.65;0.98;;;;;;;5.26;46.64;94300.09;5011878;28;20099;-65
2023/04/13 10:36:40;;;;;;;1.77;0.82;;;;;;;5.72;45.35;94293.94;5015342;28;20033;-65
2023/04/13 10:39:07;;;;;;;2.83;1.10;;;;;;;5.99;44.92;94293.50;5013013;28;20107;-65
2023/04/13 10:41:32;;;;;;;1.67;0.77;;;;;;;5.52;45.74;94290.16;5009284;28;20028;-65
2023/04/13 10:44:05;;;;;;;3.15;0.77;;;;;;;5.52;45.46;94300.72;5010750;28;20600;-66
2023/04/13 10:46:34;;;;;;;2.78;0.88;;;;;;;5.49;48.15;94293.97;5010973;28;20155;-65
2023/04/13 10:49:00;;;;;;;6.40;3.88;;;;;;;6.39;46.84;94301.13;5018102;28;20037;-65
2023/04/13 10:51:26;;;;;;;2.65;0.98;;;;;;;5.80;45.60;94310.69;5015690;28;20402;-65
2023/04/13 10:54:02;;;;;;;2.15;1.90;;;;;;;6.09;45.40;94294.03;5014095;28;20544;-65
2023/04/13 10:56:27;;;;;;;3.13;1.88;;;;;;;6.72;44.99;94303.41;5014158;28;20213;-65
2023/04/13 10:58:53;;;;;;;9.73;6.85;;;;;;;6.77;42.61;94313.44;5014858;28;20080;-65
2023/04/13 11:01:21;;;;;;;2.95;1.52;;;;;;;5.65;45.85;94324.72;5010112;28;20026;-65
2023/04/13 11:03:51;;;;;;;1.60;0.98;;;;;;;5.16;48.28;94324.09;4992882;28;20532;-65
2023/04/13 11:06:16;;;;;;;1.90;0.82;;;;;;;3.97;51.63;94332.84;5007022;28;20049;-65
2023/04/13 11:08:42;;;;;;;0.98;0.77;;;;;;;2.31;60.66;94354.50;5013845;28;20391;-65
2023/04/13 11:11:09;;;;;;;1.15;0.77;;;;;;;1.61;63.05;94367.53;5014166;28;20030;-66
2023/04/13 11:13:42;;;;;;;0.60;0.40;;;;;;;1.84;64.31;94357.34;5015285;28;20045;-66
2023/04/13 11:16:07;;;;;;;2.65;1.63;;;;;;;3.13;60.66;94340.75;5012578;28;20055;-68
2023/04/13 11:18:33;;;;;;;1.17;0.63;;;;;;;3.93;57.03;94343.72;5016250;28;20052;-66
2023/04/13 11:20:58;;;;;;;5.82;3.55;;;;;;;4.02;56.40;94344.50;5012462;28;20538;-67
2023/04/13 11:23:24;;;;;;;1.52;1.17;;;;;;;5.26;57.27;94349.41;5014271;28;20080;-65
2023/04/13 11:25:54;;;;;;;14.73;9.48;;;;;;;6.19;55.87;94349.28;5012992;28;20516;-66
2023/04/13 11:28:21;;;;;;;0.68;0.40;;;;;;;6.64;46.91;94351.13;5014801;28;20044;-67
2023/04/13 11:30:55;;;;;;;1.48;0.40;;;;;;;5.17;49.64;94354.75;5012975;28;20226;-66
2023/04/13 11:33:25;;;;;;;0.95;0.60;;;;;;;5.89;48.30;94354.53;5015316;28;20296;-66
2023/04/13 11:35:51;;;;;;;1.70;0.60;;;;;;;6.10;50.22;94355.66;5009019;28;20034;-66
2023/04/13 11:38:17;;;;;;;3.50;0.90;;;;;;;4.43;52.63;94361.22;5028881;28;20504;-66
2023/04/13 11:40:46;;;;;;;2.15;0.45;;;;;;;3.72;57.04;94364.47;5027507;28;20054;-66